Strona główna
METAR-TAF:

METAR-TAF

Lotnisko :

Port lotniczy Tunis

Tunis, Tunezja

Szerokość geograficzna: 36-50N, Długość geograficzna: 010-14E, wysokość: 3 m

Aktualna obserwacja pogody

Raport powstał 49 minut temu, godzina 00:00 UTC
Wiatr 1 kt z kierunków zmiennych
Temperatura 23°C
Wilgotność 89%
Ciśnienie 1016 hPa
Widzialność 10 km lub więcej
Brak chmur poniżej 1500 m i brak chmur cumulonimbus

METAR: DTTA 240000Z VRB01KT CAVOK 23/21 Q1016

czas: 01:49 (00:49 UTC)

Prognoza

Raport powstał 1 godzina i 49 minut temu, godzina 23:00 UTC
Prognoza ważna od 24 godzina 00 UTC do 24 godzina 24 UTC
Wiatr 3 kt z kierunków zmiennych
Widzialność 10 km lub więcej
Brak chmur poniżej 1500 m i brak chmur cumulonimbus
Stopniowe zmiany
od 24 godzina 10 UTC do 24 godzina 12 UTC
Wiatr 10 kt od wschodnio-północny wschód
Stopniowe zmiany
od 24 godzina 21 UTC do 24 godzina 23 UTC
Wiatr 3 kt z kierunków zmiennych

TAF: DTTA 232300Z 2400/2424 VRB03KT CAVOK BECMG 2410/2412 06010KT BECMG 2421/2423 VRB03KT

Obserwacja i prognoza pogody dla ponad 4000 lotnisk (raport METAR i TAF).

Dostępne stacje oznaczono żółtymi i czerwonymi punktami na mapie.

Najedź kursorem aby zobaczyć nazwę stacji.

Kliknij aby zobaczyć obserwacje i prognozy pogody.

Aby zmienić mapę: kliknij na zielony przycisk z czarnym krzyżykiem, aby powiększyć; na zielony przycisk z myślnikiem, aby pomniejszyć; na zielone strzałki, aby przejść do map sąsiednich.


METAR-TAF: